Time;durP1;ratioP1;P1;durP2;ratioP2;P2;SDS_P1;SDS_P2;PMS_P1;PMS_P2;Temp;Humidity;BMP_temperature;BMP_pressure;BME280_temperature;BME280_humidity;BME280_pressure;Samples;Min_cycle;Max_cycle;Signal;HPM_P1;HPM_P2
2021/03/19 00:01:45;;;;;;;8.10;3.33;;;5.10;78.50;;;;;;6246020;23;20058;-76
2021/03/19 00:04:11;;;;;;;6.03;3.40;;;5.00;78.70;;;;;;6218521;23;20295;-75
2021/03/19 00:06:36;;;;;;;5.67;3.30;;;5.00;78.70;;;;;;6246015;23;20032;-77
2021/03/19 00:09:06;;;;;;;5.33;3.30;;;5.00;78.70;;;;;;6218983;23;20012;-80
2021/03/19 00:11:32;;;;;;;7.60;3.40;;;4.90;78.50;;;;;;6246869;23;20000;-80
2021/03/19 00:13:58;;;;;;;5.20;3.40;;;4.90;78.70;;;;;;6218852;23;20374;-78
2021/03/19 00:16:24;;;;;;;6.73;3.40;;;5.00;78.60;;;;;;6219183;23;20004;-78
2021/03/19 00:18:49;;;;;;;5.57;3.17;;;4.80;78.70;;;;;;6219616;23;20000;-80
2021/03/19 00:21:15;;;;;;;5.53;3.20;;;4.80;78.60;;;;;;6219668;23;20784;-80
2021/03/19 00:23:41;;;;;;;5.90;3.27;;;4.80;78.80;;;;;;6246759;23;20003;-79
2021/03/19 00:26:07;;;;;;;5.50;3.20;;;4.70;79.10;;;;;;6219344;23;20004;-78
2021/03/19 00:28:33;;;;;;;6.77;3.70;;;4.70;79.40;;;;;;6219361;23;20000;-79
2021/03/19 00:30:59;;;;;;;7.80;3.77;;;4.60;79.60;;;;;;6218840;23;20497;-80
2021/03/19 00:33:25;;;;;;;6.47;3.80;;;4.50;80.00;;;;;;6219664;23;20510;-79
2021/03/19 00:35:51;;;;;;;6.77;3.83;;;4.50;80.10;;;;;;6219819;23;20012;-79
2021/03/19 00:38:16;;;;;;;7.17;3.77;;;4.50;80.30;;;;;;6245367;23;20339;-79
2021/03/19 00:40:42;;;;;;;8.23;4.53;;;4.50;80.60;;;;;;6220103;23;20015;-79
2021/03/19 00:43:11;;;;;;;5.80;3.87;;;4.40;81.00;;;;;;6219367;23;20000;-79
2021/03/19 00:45:36;;;;;;;7.70;4.00;;;4.30;81.20;;;;;;6220547;23;20007;-79
2021/03/19 00:48:02;;;;;;;7.97;3.77;;;4.40;81.20;;;;;;6219469;23;20024;-79
2021/03/19 00:50:28;;;;;;;8.77;4.23;;;4.30;81.50;;;;;;6220436;23;20004;-79
2021/03/19 00:52:54;;;;;;;9.80;4.50;;;4.20;82.20;;;;;;6219687;23;20023;-86
2021/03/19 00:55:21;;;;;;;9.13;4.80;;;4.30;81.90;;;;;;6219833;23;20027;-79
2021/03/19 00:57:46;;;;;;;9.97;4.53;;;4.30;82.40;;;;;;6219551;23;20000;-79
2021/03/19 01:00:13;;;;;;;10.03;4.80;;;4.30;82.80;;;;;;6219475;23;20051;-79
2021/03/19 01:02:40;;;;;;;8.27;4.87;;;4.30;82.80;;;;;;6246353;23;20004;-79
2021/03/19 01:05:15;;;;;;;9.30;5.00;;;4.20;83.00;;;;;;6219525;23;20000;-78
2021/03/19 01:07:41;;;;;;;7.53;4.43;;;4.20;83.30;;;;;;6219631;23;20439;-78
2021/03/19 01:10:11;;;;;;;7.83;4.30;;;4.20;83.20;;;;;;6219542;23;20058;-78
2021/03/19 01:12:37;;;;;;;6.70;4.30;;;4.30;83.10;;;;;;6246374;23;20080;-78
2021/03/19 01:15:05;;;;;;;7.77;4.40;;;4.20;82.90;;;;;;6219701;23;20454;-78
2021/03/19 01:17:31;;;;;;;8.13;4.90;;;4.20;82.70;;;;;;6219801;23;20134;-79
2021/03/19 01:19:57;;;;;;;8.73;4.33;;;4.30;82.40;;;;;;6245691;23;20423;-83
2021/03/19 01:22:23;;;;;;;8.13;4.40;;;4.30;82.00;;;;;;6219904;23;20100;-78
2021/03/19 01:24:48;;;;;;;11.70;4.90;;;4.30;82.10;;;;;;6220418;23;20036;-77
2021/03/19 01:27:14;;;;;;;9.67;4.77;;;4.20;82.00;;;;;;6220867;23;19996;-78
2021/03/19 01:29:40;;;;;;;8.77;4.70;;;4.20;82.00;;;;;;6248385;23;20004;-77
2021/03/19 01:32:06;;;;;;;8.10;4.83;;;4.20;81.90;;;;;;6219919;23;20323;-78
2021/03/19 01:34:31;;;;;;;10.20;5.07;;;4.20;82.30;;;;;;6247716;23;19988;-78
2021/03/19 01:36:57;;;;;;;10.83;5.20;;;4.10;82.20;;;;;;6220068;23;20387;-77
2021/03/19 01:39:22;;;;;;;12.97;5.97;;;4.10;82.20;;;;;;6220784;23;20082;-78
2021/03/19 01:41:53;;;;;;;8.93;5.33;;;4.10;82.30;;;;;;6220633;23;20000;-77
2021/03/19 01:44:31;;;;;;;9.53;5.73;;;4.20;82.20;;;;;;6221107;23;20003;-77
2021/03/19 01:47:34;;;;;;;13.03;6.50;;;4.10;82.20;;;;;;6220177;23;19996;-78
2021/03/19 01:50:40;;;;;;;10.53;5.90;;;4.10;82.40;;;;;;6247436;23;20007;-80
2021/03/19 01:53:43;;;;;;;10.87;6.60;;;4.10;82.50;;;;;;6247101;23;20467;-78
2021/03/19 01:56:46;;;;;;;12.17;6.27;;;4.00;82.40;;;;;;6220524;23;20000;-78
2021/03/19 01:59:49;;;;;;;12.87;7.13;;;4.00;82.20;;;;;;6246794;23;20061;-78
2021/03/19 02:02:53;;;;;;;13.50;7.50;;;3.90;83.00;;;;;;6220551;23;20380;-77
2021/03/19 02:05:55;;;;;;;11.80;6.73;;;4.00;82.70;;;;;;6247073;23;20415;-77
2021/03/19 02:08:59;;;;;;;12.60;6.70;;;3.90;82.50;;;;;;6221091;23;20003;-78
2021/03/19 02:12:02;;;;;;;13.33;7.03;;;3.90;83.20;;;;;;6247233;23;20012;-78
2021/03/19 02:15:05;;;;;;;12.37;7.03;;;3.90;83.00;;;;;;6220530;23;20426;-78
2021/03/19 02:18:08;;;;;;;13.43;7.33;;;3.80;83.00;;;;;;6220837;23;20003;-80
2021/03/19 02:21:11;;;;;;;12.90;7.03;;;3.80;83.30;;;;;;6247305;23;20058;-78
2021/03/19 02:24:14;;;;;;;13.10;7.63;;;3.70;84.10;;;;;;6220525;23;20054;-79
2021/03/19 02:27:17;;;;;;;13.37;7.63;;;3.60;84.50;;;;;;6220874;23;20000;-79
2021/03/19 02:30:20;;;;;;;15.83;8.03;;;3.60;84.10;;;;;;6246864;23;20000;-78
2021/03/19 02:32:46;;;;;;;12.27;7.40;;;3.70;84.30;;;;;;6246887;23;19996;-78
2021/03/19 02:35:20;;;;;;;13.03;7.30;;;3.70;84.30;;;;;;6246179;23;20156;-78
2021/03/19 02:37:46;;;;;;;15.67;7.73;;;3.70;84.50;;;;;;6220229;23;20016;-78
2021/03/19 02:40:15;;;;;;;13.53;7.50;;;3.70;84.40;;;;;;6246411;23;20087;-78
2021/03/19 02:42:41;;;;;;;14.70;7.83;;;3.60;85.00;;;;;;6246809;23;20347;-78
2021/03/19 02:45:14;;;;;;;14.37;7.17;;;3.70;84.80;;;;;;6219665;23;20091;-78
2021/03/19 02:47:40;;;;;;;12.53;7.13;;;3.70;84.20;;;;;;6246906;23;19992;-77
2021/03/19 02:50:08;;;;;;;14.53;7.30;;;3.70;84.00;;;;;;6219715;23;20518;-78
2021/03/19 02:52:36;;;;;;;12.90;7.13;;;3.70;84.30;;;;;;6220487;23;20075;-79
2021/03/19 02:55:07;;;;;;;12.47;7.13;;;3.70;84.00;;;;;;6246448;23;20019;-81
2021/03/19 02:57:32;;;;;;;14.67;7.57;;;3.80;84.00;;;;;;6247115;23;20024;-80
2021/03/19 02:59:58;;;;;;;14.17;7.43;;;3.80;84.00;;;;;;6219732;23;20058;-78
2021/03/19 03:02:24;;;;;;;14.13;7.53;;;3.80;83.90;;;;;;6220439;23;20083;-78
2021/03/19 03:04:49;;;;;;;15.23;7.60;;;3.80;83.80;;;;;;6246795;23;20002;-77
2021/03/19 03:07:23;;;;;;;12.97;7.17;;;3.80;83.90;;;;;;6219400;23;20004;-77
2021/03/19 03:09:49;;;;;;;16.70;7.83;;;3.90;83.80;;;;;;6220192;23;20004;-78
2021/03/19 03:12:17;;;;;;;18.33;7.90;;;3.90;83.80;;;;;;6219551;23;20007;-78
2021/03/19 03:14:43;;;;;;;14.23;7.47;;;3.90;84.30;;;;;;6246938;23;19992;-79
2021/03/19 03:17:09;;;;;;;13.33;7.33;;;3.80;84.40;;;;;;6220374;23;20315;-80
2021/03/19 03:19:35;;;;;;;13.17;7.63;;;3.80;84.50;;;;;;6220379;23;20060;-80
2021/03/19 03:22:02;;;;;;;14.17;7.67;;;3.80;84.80;;;;;;6220330;23;20438;-79
2021/03/19 03:24:28;;;;;;;16.23;8.17;;;3.90;84.80;;;;;;6247073;23;20019;-79
2021/03/19 03:26:54;;;;;;;18.33;8.10;;;3.80;84.90;;;;;;6220243;23;19997;-79
2021/03/19 03:29:24;;;;;;;14.23;8.30;;;3.80;86.00;;;;;;6219078;23;20094;-79
2021/03/19 03:31:50;;;;;;;16.63;8.20;;;3.80;85.10;;;;;;6220273;23;19996;-79
2021/03/19 03:34:16;;;;;;;14.23;8.10;;;3.80;84.80;;;;;;6219712;23;20002;-79
2021/03/19 03:36:42;;;;;;;19.60;9.37;;;3.80;85.10;;;;;;6219956;23;20019;-80
2021/03/19 03:39:15;;;;;;;21.10;9.30;;;3.80;85.40;;;;;;6219200;23;20050;-79
2021/03/19 03:41:43;;;;;;;15.83;8.70;;;3.80;84.90;;;;;;6220412;23;20011;-79
2021/03/19 03:44:12;;;;;;;15.10;9.03;;;3.90;84.90;;;;;;6219526;23;19996;-79
2021/03/19 03:46:38;;;;;;;18.37;8.63;;;3.80;84.90;;;;;;6220023;23;20042;-79
2021/03/19 03:49:04;;;;;;;15.13;8.70;;;3.80;84.80;;;;;;6245957;23;20019;-79
2021/03/19 03:51:30;;;;;;;16.47;9.47;;;3.80;85.30;;;;;;6246744;23;20470;-79
2021/03/19 03:53:57;;;;;;;17.97;9.50;;;3.80;85.30;;;;;;6246723;23;19992;-79
2021/03/19 03:56:25;;;;;;;19.93;10.50;;;3.80;85.60;;;;;;6220423;23;20026;-79
2021/03/19 03:58:51;;;;;;;19.43;9.60;;;3.80;85.20;;;;;;6246530;23;20071;-79
2021/03/19 04:01:17;;;;;;;17.60;9.77;;;3.80;84.80;;;;;;6219046;23;20034;-79
2021/03/19 04:03:43;;;;;;;17.93;9.33;;;3.80;84.80;;;;;;6219969;23;20412;-79
2021/03/19 04:06:09;;;;;;;18.67;9.57;;;3.80;85.20;;;;;;6219590;23;20000;-79
2021/03/19 04:08:35;;;;;;;18.10;9.03;;;3.80;85.20;;;;;;6247032;23;19999;-79
2021/03/19 04:11:06;;;;;;;21.03;10.57;;;3.80;85.30;;;;;;6245938;23;20461;-81
2021/03/19 04:13:32;;;;;;;18.97;9.37;;;3.80;85.60;;;;;;6246399;23;20042;-78
2021/03/19 04:15:59;;;;;;;21.87;9.93;;;3.80;85.70;;;;;;6245825;23;20454;-86
2021/03/19 04:18:25;;;;;;;19.57;10.17;;;3.70;86.00;;;;;;6219869;23;20415;-78
2021/03/19 04:20:54;;;;;;;18.27;9.90;;;3.80;85.90;;;;;;6219673;23;20008;-78
2021/03/19 04:23:20;;;;;;;22.33;10.23;;;3.90;85.60;;;;;;6219260;23;20000;-78
2021/03/19 04:25:46;;;;;;;20.90;10.23;;;3.80;86.00;;;;;;6219882;23;20369;-78
2021/03/19 04:28:19;;;;;;;21.70;10.40;;;3.70;86.00;;;;;;6219213;23;20032;-78
2021/03/19 04:30:45;;;;;;;20.57;10.13;;;3.80;86.30;;;;;;6220021;23;20490;-78
2021/03/19 04:33:21;;;;;;;19.23;9.93;;;3.80;86.50;;;;;;6245667;23;20064;-79
2021/03/19 04:36:01;;;;;;;22.03;10.80;;;3.80;86.30;;;;;;6219437;23;20106;-78
2021/03/19 04:38:27;;;;;;;22.17;10.80;;;3.90;86.10;;;;;;6213961;23;20013;-78
2021/03/19 04:40:53;;;;;;;19.17;9.67;;;4.00;85.90;;;;;;6215612;23;20017;-78
2021/03/19 04:43:19;;;;;;;20.83;10.77;;;4.00;85.30;;;;;;6214282;23;20054;-78
2021/03/19 04:45:45;;;;;;;18.83;9.33;;;4.00;85.20;;;;;;6214503;23;20004;-78
2021/03/19 04:48:12;;;;;;;17.33;9.00;;;4.00;85.10;;;;;;6215618;23;19992;-78
2021/03/19 04:50:37;;;;;;;16.57;8.13;;;4.10;84.70;;;;;;6214996;23;20001;-79
2021/03/19 04:53:03;;;;;;;17.40;8.67;;;4.00;84.70;;;;;;6214263;23;20096;-80
2021/03/19 04:55:29;;;;;;;15.00;8.27;;;4.00;84.80;;;;;;6214865;23;20084;-78
2021/03/19 04:57:55;;;;;;;14.83;8.40;;;3.90;85.00;;;;;;6216363;23;19997;-78
2021/03/19 05:00:22;;;;;;;18.37;8.63;;;3.90;85.00;;;;;;6216107;23;20072;-78
2021/03/19 05:02:49;;;;;;;13.47;7.47;;;4.00;84.90;;;;;;6218278;23;19989;-77
2021/03/19 05:05:27;;;;;;;17.13;8.80;;;4.00;85.00;;;;;;6217165;23;20434;-78
2021/03/19 05:07:54;;;;;;;16.93;8.43;;;3.90;85.00;;;;;;6216031;23;20076;-78
2021/03/19 05:10:23;;;;;;;17.43;9.20;;;3.90;84.70;;;;;;6215923;23;20339;-77
2021/03/19 05:12:48;;;;;;;16.17;7.80;;;3.90;84.80;;;;;;6217884;23;20472;-77
2021/03/19 05:15:14;;;;;;;19.03;9.07;;;3.90;84.80;;;;;;6216746;23;20076;-78
2021/03/19 05:17:40;;;;;;;16.23;8.83;;;3.90;85.00;;;;;;6216050;23;19993;-78
2021/03/19 05:20:09;;;;;;;19.57;9.20;;;3.90;85.40;;;;;;6215840;23;20004;-80
2021/03/19 05:22:34;;;;;;;16.90;9.27;;;3.90;85.10;;;;;;6215640;23;20350;-79
2021/03/19 05:25:00;;;;;;;19.40;9.27;;;3.90;84.90;;;;;;6215923;23;20087;-81
2021/03/19 05:27:26;;;;;;;19.80;9.63;;;4.00;84.70;;;;;;6216432;23;20007;-79
2021/03/19 05:29:55;;;;;;;21.67;9.93;;;4.00;84.60;;;;;;6216484;23;20024;-79
2021/03/19 05:32:25;;;;;;;19.30;9.63;;;4.00;84.70;;;;;;6215956;23;20001;-78
2021/03/19 05:34:51;;;;;;;22.80;9.57;;;4.00;84.70;;;;;;6216223;23;19993;-78
2021/03/19 05:37:16;;;;;;;20.53;10.40;;;4.00;84.80;;;;;;6215167;23;20019;-79
2021/03/19 05:39:42;;;;;;;20.93;10.07;;;4.00;84.90;;;;;;6217487;23;20308;-78
2021/03/19 05:42:16;;;;;;;18.83;10.30;;;4.00;85.00;;;;;;6216952;23;20358;-79
2021/03/19 05:44:45;;;;;;;18.00;9.60;;;4.00;85.10;;;;;;6217081;23;19996;-79
2021/03/19 05:47:11;;;;;;;17.53;8.60;;;4.00;85.20;;;;;;6217165;23;19989;-79
2021/03/19 05:49:37;;;;;;;16.77;8.47;;;3.90;85.40;;;;;;6216593;23;20004;-79
2021/03/19 05:52:26;;;;;;;16.50;8.40;;;3.90;85.40;;;;;;6216768;23;20422;-79
2021/03/19 05:54:53;;;;;;;17.47;8.33;;;3.90;85.50;;;;;;6216615;23;20001;-79
2021/03/19 05:57:28;;;;;;;18.23;8.53;;;3.90;85.20;;;;;;6215745;23;20343;-79
2021/03/19 05:59:57;;;;;;;16.93;8.37;;;3.90;85.60;;;;;;6216158;23;20032;-79
2021/03/19 06:02:33;;;;;;;17.67;8.77;;;4.00;85.60;;;;;;6215577;23;19992;-78
2021/03/19 06:05:11;;;;;;;19.80;9.10;;;3.90;85.70;;;;;;6217325;23;19996;-78
2021/03/19 06:07:44;;;;;;;18.33;8.83;;;4.00;85.90;;;;;;6215832;23;20407;-79
2021/03/19 06:10:17;;;;;;;20.70;9.07;;;4.00;85.80;;;;;;6217143;23;20000;-79
2021/03/19 06:12:43;;;;;;;17.20;8.67;;;4.10;85.70;;;;;;6217349;23;20004;-79
2021/03/19 06:15:28;;;;;;;19.17;9.63;;;4.10;85.90;;;;;;6217398;23;19993;-80
2021/03/19 06:17:54;;;;;;;17.23;9.13;;;4.10;85.90;;;;;;6216616;23;20027;-79
2021/03/19 06:20:23;;;;;;;17.00;8.60;;;4.20;85.70;;;;;;6215815;23;20015;-79
2021/03/19 06:23:17;;;;;;;16.33;8.23;;;4.20;85.50;;;;;;6217470;23;19993;-80
2021/03/19 06:25:58;;;;;;;16.00;8.47;;;4.20;85.60;;;;;;6216013;23;19993;-79
2021/03/19 06:28:28;;;;;;;18.40;8.87;;;4.20;85.80;;;;;;6215556;23;19997;-79
2021/03/19 06:31:20;;;;;;;17.10;9.20;;;4.20;85.10;;;;;;6215788;23;20004;-80
2021/03/19 06:33:46;;;;;;;15.45;8.32;;;4.20;85.40;;;;;;6217217;23;20027;-81
2021/03/19 06:36:19;;;;;;;15.70;8.23;;;4.20;85.50;;;;;;6215397;23;20127;-80
2021/03/19 06:39:03;;;;;;;15.23;8.13;;;4.20;84.60;;;;;;6216138;23;20024;-80
2021/03/19 06:41:35;;;;;;;17.33;8.80;;;4.20;84.70;;;;;;6215753;23;20388;-79
2021/03/19 06:44:22;;;;;;;12.60;7.23;;;4.20;84.80;;;;;;6216386;23;19989;-80
2021/03/19 06:46:52;;;;;;;15.97;7.53;;;4.20;84.90;;;;;;6215714;23;20028;-79
2021/03/19 06:49:20;;;;;;;16.77;8.40;;;4.20;85.50;;;;;;6216369;23;20001;-78
2021/03/19 06:52:21;;;;;;;19.00;8.97;;;4.30;85.50;;;;;;6215454;23;20005;-79
2021/03/19 06:54:46;;;;;;;15.27;7.97;;;4.40;85.10;;;;;;6215819;23;20020;-79
2021/03/19 06:57:14;;;;;;;15.40;7.77;;;4.40;84.30;;;;;;6214760;23;20003;-78
2021/03/19 06:59:45;;;;;;;15.90;8.83;;;4.40;84.20;;;;;;6216785;23;20392;-78
2021/03/19 07:02:20;;;;;;;18.60;9.15;;;4.30;84.80;;;;;;6215434;23;20427;-78
2021/03/19 07:04:57;;;;;;;17.30;9.30;;;4.20;85.40;;;;;;6215692;23;20027;-78
2021/03/19 07:07:22;;;;;;;18.00;8.70;;;4.20;85.50;;;;;;6215703;23;20007;-78
2021/03/19 07:10:21;;;;;;;15.17;7.87;;;4.10;85.50;;;;;;6215126;23;20009;-78
2021/03/19 07:13:14;;;;;;;13.07;6.93;;;4.20;86.00;;;;;;6215031;23;20091;-78
2021/03/19 07:15:54;;;;;;;14.43;7.40;;;4.20;85.50;;;;;;6216323;23;19996;-79
2021/03/19 07:18:51;;;;;;;12.13;6.20;;;4.20;85.00;;;;;;6214358;23;20100;-79
2021/03/19 07:21:47;;;;;;;13.33;6.53;;;4.20;84.50;;;;;;6214176;23;20005;-79
2021/03/19 07:24:28;;;;;;;13.23;7.23;;;4.20;84.60;;;;;;6214379;23;20008;-79
2021/03/19 07:27:47;;;;;;;13.20;7.20;;;4.20;85.30;;;;;;6216183;23;20007;-78
2021/03/19 07:30:22;;;;;;;14.07;6.77;;;4.20;85.40;;;;;;6215573;23;19997;-78
2021/03/19 07:33:06;;;;;;;18.87;7.53;;;4.20;84.80;;;;;;6214229;23;19989;-78
2021/03/19 07:35:50;;;;;;;14.60;7.30;;;4.30;85.00;;;;;;6215062;23;20434;-77
2021/03/19 07:38:54;;;;;;;15.10;7.90;;;4.30;84.90;;;;;;6213760;23;20023;-78
2021/03/19 07:41:39;;;;;;;13.50;7.53;;;4.30;85.20;;;;;;6214164;23;20560;-78
2021/03/19 07:44:13;;;;;;;12.83;7.33;;;4.30;85.70;;;;;;6215816;23;20024;-78
2021/03/19 07:47:20;;;;;;;14.87;7.70;;;4.20;85.80;;;;;;6214957;23;20352;-78
2021/03/19 07:50:07;;;;;;;18.23;8.30;;;4.30;86.00;;;;;;6216146;23;19997;-78
2021/03/19 07:53:05;;;;;;;15.40;7.97;;;4.40;85.70;;;;;;6215626;23;20093;-78
2021/03/19 07:55:47;;;;;;;17.77;8.57;;;4.40;85.40;;;;;;6169073;23;20000;-77
2021/03/19 07:58:13;;;;;;;14.80;7.07;;;4.40;85.90;;;;;;6214137;23;20415;-77
2021/03/19 08:00:45;;;;;;;15.77;7.50;;;4.40;85.70;;;;;;6214746;23;20032;-79
2021/03/19 08:03:11;;;;;;;;;;;4.60;85.30;;;;;;6214942;23;20005;-79
2021/03/19 08:05:45;;;;;;;14.37;7.30;;;4.70;85.40;;;;;;6214248;23;19945;-79
2021/03/19 08:08:11;;;;;;;13.67;7.23;;;4.80;84.40;;;;;;6214444;23;20003;-79
2021/03/19 08:10:57;;;;;;;14.07;7.47;;;4.80;83.90;;;;;;6214650;23;20009;-78
2021/03/19 08:13:34;;;;;;;15.73;7.77;;;4.70;83.60;;;;;;6215769;23;19993;-78
2021/03/19 08:16:18;;;;;;;15.00;7.87;;;4.70;84.00;;;;;;6214209;23;20145;-78
2021/03/19 08:18:50;;;;;;;16.23;8.17;;;4.70;84.10;;;;;;6216995;23;20060;-78
2021/03/19 08:21:31;;;;;;;17.13;8.30;;;4.60;83.60;;;;;;6215197;23;20387;-78
2021/03/19 08:24:03;;;;;;;21.17;9.63;;;4.60;83.70;;;;;;6216263;23;20039;-77
2021/03/19 08:26:52;;;;;;;18.17;8.63;;;4.60;83.10;;;;;;6214442;23;20027;-78
2021/03/19 08:29:28;;;;;;;17.20;8.87;;;4.70;83.70;;;;;;6213956;23;19993;-77
2021/03/19 08:32:24;;;;;;;16.57;8.77;;;4.70;83.60;;;;;;6215705;23;20000;-77
2021/03/19 08:35:23;;;;;;;20.87;9.13;;;4.70;83.80;;;;;;6215002;23;19993;-78
2021/03/19 08:38:10;;;;;;;21.53;9.60;;;4.70;84.10;;;;;;6213831;23;20005;-77
2021/03/19 08:40:39;;;;;;;22.43;10.13;;;4.70;84.50;;;;;;6215764;23;20012;-78
2021/03/19 08:43:13;;;;;;;19.93;9.97;;;4.70;84.80;;;;;;6212880;23;19997;-78
2021/03/19 08:45:39;;;;;;;18.57;9.73;;;4.80;84.90;;;;;;6213492;23;20008;-78
2021/03/19 08:48:13;;;;;;;21.40;10.20;;;4.80;84.60;;;;;;6214596;23;20408;-78
2021/03/19 08:50:42;;;;;;;22.23;10.30;;;4.80;84.50;;;;;;6213737;23;20001;-80
2021/03/19 08:53:12;;;;;;;22.07;10.50;;;4.80;84.90;;;;;;6213162;23;20001;-77
2021/03/19 08:55:44;;;;;;;23.47;10.80;;;4.80;85.20;;;;;;6213662;23;20000;-78
2021/03/19 08:58:28;;;;;;;17.15;8.68;;;4.80;84.90;;;;;;6213514;23;20084;-79
2021/03/19 09:01:03;;;;;;;23.00;11.07;;;4.90;86.10;;;;;;6213537;23;20317;-78
2021/03/19 09:03:38;;;;;;;24.33;11.53;;;4.90;86.30;;;;;;6213580;23;19997;-78
2021/03/19 09:06:14;;;;;;;23.50;11.33;;;4.90;86.00;;;;;;6213342;23;20005;-77
2021/03/19 09:18:12;;;;;;;24.70;11.53;;;5.10;83.20;;;;;;6181576;23;20012;-73
2021/03/19 09:20:41;;;;;;;21.63;10.70;;;5.20;82.50;;;;;;6178526;23;20017;-79
2021/03/19 09:23:10;;;;;;;21.87;10.70;;;5.20;82.10;;;;;;6188410;23;20016;-73
2021/03/19 09:25:55;;;;;;;23.10;11.00;;;5.20;81.00;;;;;;6186908;23;20005;-75
2021/03/19 09:28:36;;;;;;;23.80;11.17;;;5.30;80.60;;;;;;6187084;23;20009;-76
2021/03/19 09:31:07;;;;;;;24.47;11.37;;;5.20;81.00;;;;;;6187544;23;20015;-76
2021/03/19 09:33:45;;;;;;;22.60;10.88;;;5.30;81.40;;;;;;6187679;23;20031;-73
2021/03/19 09:36:49;;;;;;;19.10;10.13;;;5.40;80.30;;;;;;6185667;23;20404;-75
2021/03/19 09:39:49;;;;;;;19.47;9.00;;;5.50;79.50;;;;;;6211869;23;20032;-74
2021/03/19 09:42:17;;;;;;;20.07;10.07;;;5.50;77.70;;;;;;6187191;23;20075;-74
2021/03/19 09:45:07;;;;;;;15.40;8.47;;;5.50;77.80;;;;;;6187567;23;20078;-73
2021/03/19 09:47:41;;;;;;;17.10;8.80;;;5.50;77.30;;;;;;6214593;23;20004;-74
2021/03/19 09:50:27;;;;;;;16.77;8.77;;;5.60;76.80;;;;;;6187703;23;20454;-73
2021/03/19 09:53:05;;;;;;;19.70;9.00;;;5.60;76.50;;;;;;6189108;23;20012;-73
2021/03/19 09:55:44;;;;;;;20.40;8.67;;;5.60;76.00;;;;;;6189407;23;20000;-73
2021/03/19 09:58:18;;;;;;;16.93;8.67;;;5.70;76.10;;;;;;6215374;23;20028;-72
2021/03/19 10:00:53;;;;;;;19.30;9.50;;;5.70;75.80;;;;;;6189370;23;20009;-73
2021/03/19 10:03:19;;;;;;;17.43;9.07;;;5.80;76.70;;;;;;6215416;23;20068;-73
2021/03/19 10:05:46;;;;;;;15.60;7.93;;;5.80;76.10;;;;;;6189001;23;20032;-73
2021/03/19 10:08:25;;;;;;;16.00;8.43;;;5.90;75.40;;;;;;6215315;23;20003;-76
2021/03/19 10:11:01;;;;;;;17.97;8.50;;;5.90;74.70;;;;;;6188739;23;20040;-74
2021/03/19 10:13:27;;;;;;;18.00;9.07;;;5.90;75.00;;;;;;6188428;23;20008;-74
2021/03/19 10:15:55;;;;;;;20.03;8.70;;;6.00;76.10;;;;;;6215320;23;20003;-73
2021/03/19 10:18:38;;;;;;;17.53;9.17;;;6.00;75.50;;;;;;6187769;23;20083;-72
2021/03/19 10:21:11;;;;;;;20.47;9.10;;;6.10;76.00;;;;;;6188288;23;20013;-72
2021/03/19 10:23:44;;;;;;;17.43;7.93;;;6.20;74.20;;;;;;6188553;23;20079;-73
2021/03/19 10:26:18;;;;;;;13.13;7.80;;;6.30;73.70;;;;;;6214492;23;20004;-75
2021/03/19 10:28:49;;;;;;;13.80;7.40;;;6.30;74.50;;;;;;6188685;23;20439;-72
2021/03/19 10:31:20;;;;;;;15.77;7.53;;;6.30;73.60;;;;;;6187836;23;20062;-74
2021/03/19 10:34:03;;;;;;;13.52;6.60;;;6.20;73.60;;;;;;6188968;23;20031;-73
2021/03/19 10:36:41;;;;;;;7.77;4.33;;;6.00;75.20;;;;;;6187907;23;20008;-73
2021/03/19 10:39:31;;;;;;;7.20;3.13;;;5.80;77.10;;;;;;6215346;23;20008;-78
2021/03/19 10:42:08;;;;;;;5.53;3.30;;;5.60;76.10;;;;;;6215744;23;20076;-73
2021/03/19 10:44:47;;;;;;;6.90;3.10;;;5.50;76.90;;;;;;6189151;23;20054;-74
2021/03/19 10:47:27;;;;;;;5.80;3.43;;;5.40;77.10;;;;;;6188745;23;20099;-73
2021/03/19 10:50:11;;;;;;;4.67;3.10;;;5.30;77.60;;;;;;6188680;23;20036;-73
2021/03/19 10:52:37;;;;;;;3.60;2.67;;;5.10;77.30;;;;;;6189292;23;20080;-74
2021/03/19 10:55:14;;;;;;;5.27;3.33;;;5.10;78.10;;;;;;6189162;23;20058;-73
2021/03/19 10:57:41;;;;;;;5.90;3.60;;;5.10;78.90;;;;;;6215438;23;20000;-73
2021/03/19 11:00:41;;;;;;;7.30;3.73;;;5.00;79.20;;;;;;6188920;23;20013;-73
2021/03/19 11:03:11;;;;;;;8.47;4.27;;;5.00;79.80;;;;;;6188967;23;20087;-73
2021/03/19 11:05:59;;;;;;;7.30;3.87;;;5.10;79.40;;;;;;6188973;23;20028;-73
2021/03/19 11:08:25;;;;;;;7.23;4.17;;;5.10;79.20;;;;;;6188232;23;19997;-73
2021/03/19 11:10:52;;;;;;;6.30;3.37;;;5.20;80.30;;;;;;6215372;23;20004;-74
2021/03/19 11:13:21;;;;;;;6.43;4.43;;;5.30;79.30;;;;;;6188252;23;20024;-74
2021/03/19 11:15:48;;;;;;;6.90;4.07;;;5.40;78.70;;;;;;6188596;23;20501;-74
2021/03/19 11:18:20;;;;;;;7.97;4.57;;;5.50;78.80;;;;;;6214554;23;19993;-74
2021/03/19 11:21:02;;;;;;;8.48;4.00;;;5.70;78.70;;;;;;6188562;23;20023;-73
2021/03/19 11:23:36;;;;;;;10.45;4.30;;;5.70;78.40;;;;;;6188329;23;20188;-74
2021/03/19 11:26:29;;;;;;;9.03;4.97;;;5.90;77.80;;;;;;6188598;23;20035;-75
2021/03/19 11:29:22;;;;;;;9.03;4.63;;;6.10;78.30;;;;;;6188728;23;20003;-74
2021/03/19 11:32:08;;;;;;;7.90;4.30;;;6.30;76.40;;;;;;6188530;23;20481;-74
2021/03/19 11:34:45;;;;;;;7.63;4.50;;;6.50;77.20;;;;;;6188656;23;20087;-74
2021/03/19 11:37:30;;;;;;;7.30;4.37;;;6.50;76.10;;;;;;6188255;23;20011;-75
2021/03/19 11:39:56;;;;;;;7.47;4.17;;;6.50;76.00;;;;;;6188334;23;20001;-74
2021/03/19 11:42:31;;;;;;;6.37;4.20;;;6.40;74.90;;;;;;6214508;23;20453;-74
2021/03/19 11:45:19;;;;;;;6.87;4.23;;;6.40;75.80;;;;;;6188476;23;20300;-74
2021/03/19 11:47:57;;;;;;;7.93;4.30;;;6.40;75.10;;;;;;6188280;23;20507;-74
2021/03/19 11:50:23;;;;;;;8.40;4.87;;;6.40;76.00;;;;;;6187739;23;20094;-75
2021/03/19 11:53:16;;;;;;;9.70;4.77;;;6.50;75.50;;;;;;6215058;23;19997;-75
2021/03/19 11:55:49;;;;;;;9.07;5.17;;;6.60;75.10;;;;;;6176047;23;20008;-74
2021/03/19 11:58:19;;;;;;;9.73;5.23;;;6.60;76.00;;;;;;6187687;23;20005;-75
2021/03/19 12:00:45;;;;;;;8.20;4.57;;;6.50;75.40;;;;;;6188270;23;20019;-74
2021/03/19 12:03:15;;;;;;;11.00;4.40;;;6.50;74.80;;;;;;6213877;23;19997;-74
2021/03/19 12:05:41;;;;;;;7.87;4.80;;;6.50;74.30;;;;;;6187923;23;20019;-74
2021/03/19 12:08:07;;;;;;;7.87;4.20;;;6.70;75.50;;;;;;6188210;23;20375;-73
2021/03/19 12:10:35;;;;;;;7.90;4.40;;;6.80;74.80;;;;;;6187314;23;20102;-73
2021/03/19 12:13:04;;;;;;;9.03;4.67;;;7.00;73.80;;;;;;6188068;23;20001;-73
2021/03/19 12:15:32;;;;;;;6.60;4.07;;;7.30;73.70;;;;;;6187433;23;20207;-75
2021/03/19 12:17:57;;;;;;;7.27;4.37;;;7.40;74.10;;;;;;6214526;23;20001;-74
2021/03/19 12:20:25;;;;;;;7.50;4.60;;;7.30;73.90;;;;;;6213626;23;20056;-74
2021/03/19 12:22:51;;;;;;;7.83;4.17;;;7.30;72.60;;;;;;6214664;23;20027;-73
2021/03/19 12:25:25;;;;;;;6.70;4.10;;;7.30;73.40;;;;;;6187381;23;20001;-72
2021/03/19 12:27:50;;;;;;;6.40;3.87;;;7.40;74.00;;;;;;6187711;23;20059;-73
2021/03/19 12:30:22;;;;;;;6.10;3.80;;;7.40;70.40;;;;;;6187316;23;20008;-73
2021/03/19 12:32:48;;;;;;;5.93;3.15;;;7.50;68.60;;;;;;6188097;23;19997;-73
2021/03/19 12:35:16;;;;;;;6.83;3.57;;;7.50;68.50;;;;;;6186966;23;20084;-75
2021/03/19 12:37:42;;;;;;;6.93;3.70;;;7.60;69.30;;;;;;6187823;23;20055;-74
2021/03/19 12:40:11;;;;;;;8.70;3.67;;;7.50;67.80;;;;;;6187999;23;20412;-74
2021/03/19 12:42:37;;;;;;;5.20;3.63;;;7.50;66.10;;;;;;6214640;23;20059;-74
2021/03/19 12:45:06;;;;;;;7.13;4.10;;;7.80;65.10;;;;;;6187658;23;20008;-74
2021/03/19 12:47:32;;;;;;;5.00;3.40;;;8.40;66.00;;;;;;6186715;23;20013;-74
2021/03/19 12:49:57;;;;;;;4.73;3.23;;;8.90;61.40;;;;;;6213937;23;20013;-74
2021/03/19 12:52:23;;;;;;;5.33;3.47;;;9.30;57.50;;;;;;6187139;23;20340;-74
2021/03/19 12:54:49;;;;;;;5.90;3.90;;;9.50;56.90;;;;;;6214039;23;20427;-73
2021/03/19 12:57:14;;;;;;;5.33;3.50;;;9.30;59.50;;;;;;6187168;23;20486;-74
2021/03/19 12:59:40;;;;;;;5.60;3.20;;;8.60;60.10;;;;;;6214234;23;20009;-73
2021/03/19 13:02:07;;;;;;;5.73;3.30;;;7.80;64.40;;;;;;6187992;23;20331;-74
2021/03/19 13:04:33;;;;;;;4.40;3.10;;;7.30;67.00;;;;;;6213647;23;20000;-73
2021/03/19 13:06:59;;;;;;;8.03;3.20;;;6.70;69.00;;;;;;6214013;23;20026;-73
2021/03/19 13:09:25;;;;;;;6.43;3.53;;;6.40;70.80;;;;;;6186951;23;20437;-73
2021/03/19 13:11:50;;;;;;;5.33;3.20;;;6.00;72.20;;;;;;6187582;23;20004;-73
2021/03/19 13:14:16;;;;;;;6.93;3.73;;;5.80;73.40;;;;;;6187020;23;20005;-74
2021/03/19 13:16:42;;;;;;;4.53;2.73;;;5.60;75.10;;;;;;6214247;23;19997;-74
2021/03/19 13:19:08;;;;;;;5.70;2.50;;;5.40;76.40;;;;;;6214234;23;20015;-74
2021/03/19 13:21:35;;;;;;;3.77;2.40;;;5.40;75.90;;;;;;6188762;23;20051;-74
2021/03/19 13:24:00;;;;;;;3.87;2.33;;;5.30;75.70;;;;;;6189335;23;20166;-73
2021/03/19 13:26:28;;;;;;;5.23;2.30;;;5.30;76.20;;;;;;6188902;23;20423;-73
2021/03/19 13:28:54;;;;;;;4.47;2.30;;;5.40;75.90;;;;;;6216207;23;20003;-73
2021/03/19 13:31:20;;;;;;;4.97;2.83;;;5.60;75.80;;;;;;6188570;23;20009;-73
2021/03/19 13:33:46;;;;;;;4.57;2.83;;;5.60;75.20;;;;;;6215608;23;20004;-73